createdAt,value
2019-02-08T00:00:08.860Z,20.74
2019-02-08T00:01:08.832Z,20.71
2019-02-08T00:02:08.895Z,20.59
2019-02-08T00:03:08.789Z,20.73
2019-02-08T00:04:08.819Z,20.82
2019-02-08T00:05:09.031Z,20.80
2019-02-08T00:06:08.945Z,20.92
2019-02-08T00:07:09.011Z,20.96
2019-02-08T00:08:08.865Z,20.92
2019-02-08T00:09:08.911Z,20.90
2019-02-08T00:10:09.120Z,20.93
2019-02-08T00:11:08.903Z,20.93
2019-02-08T00:12:09.040Z,20.98
2019-02-08T00:13:09.051Z,21.03
2019-02-08T00:14:08.971Z,20.93
2019-02-08T00:15:09.089Z,20.98
2019-02-08T00:16:09.001Z,20.95
2019-02-08T00:17:09.009Z,20.92
2019-02-08T00:18:08.996Z,21.04
2019-02-08T00:19:09.149Z,21.01
2019-02-08T00:21:09.181Z,20.95
2019-02-08T00:22:09.084Z,21.10
2019-02-08T00:23:09.105Z,21.07
2019-02-08T00:24:09.221Z,21.03
2019-02-08T00:25:09.307Z,21.07
2019-02-08T00:26:09.267Z,21.05
2019-02-08T00:27:09.179Z,21.05
2019-02-08T00:28:09.189Z,21.04
2019-02-08T00:29:09.309Z,21.04
2019-02-08T00:30:09.342Z,21.10
2019-02-08T00:31:09.334Z,21.10
2019-02-08T00:32:09.252Z,21.08
2019-02-08T00:33:09.358Z,21.07
2019-02-08T00:34:09.378Z,21.10
2019-02-08T00:35:09.395Z,21.13
2019-02-08T00:36:09.274Z,21.10
2019-02-08T00:37:09.308Z,21.14
2019-02-08T00:38:09.331Z,21.20
2019-02-08T00:39:09.335Z,21.15
2019-02-08T00:40:09.628Z,21.20
2019-02-08T00:41:09.483Z,21.22
2019-02-08T00:42:09.499Z,21.20
2019-02-08T00:43:09.400Z,21.20
2019-02-08T00:44:09.529Z,21.19
2019-02-08T00:45:09.545Z,21.25
2019-02-08T00:46:09.442Z,21.22
2019-02-08T00:47:09.588Z,21.22
2019-02-08T00:48:09.478Z,21.14
2019-02-08T00:49:09.502Z,21.32
2019-02-08T00:50:09.721Z,21.20
2019-02-08T00:51:09.503Z,21.28
2019-02-08T00:52:09.545Z,21.35
2019-02-08T00:53:09.531Z,21.22
2019-02-08T00:54:09.696Z,21.26
2019-02-08T00:55:09.690Z,21.26
2019-02-08T00:56:09.656Z,21.26
2019-02-08T00:57:09.741Z,21.37
2019-02-08T00:58:09.634Z,21.26
2019-02-08T00:59:09.759Z,21.37
2019-02-08T01:00:09.924Z,21.25
2019-02-08T01:01:09.792Z,21.28
2019-02-08T01:02:09.806Z,21.19
2019-02-08T01:03:09.703Z,21.22
2019-02-08T01:04:09.730Z,21.17
2019-02-08T01:05:09.834Z,21.17
2019-02-08T01:06:09.756Z,21.11
2019-02-08T01:07:09.780Z,21.14
2019-02-08T01:08:09.901Z,21.11
2019-02-08T01:09:09.811Z,21.04
2019-02-08T01:10:10.013Z,21.01
2019-02-08T01:11:09.845Z,20.93
2019-02-08T01:12:09.969Z,20.96
2019-02-08T01:13:09.870Z,20.89
2019-02-08T01:14:09.902Z,20.90
2019-02-08T01:15:10.002Z,20.89
2019-02-08T01:16:09.924Z,20.88
2019-02-08T01:17:10.052Z,20.77
2019-02-08T01:18:09.958Z,20.82
2019-02-08T01:19:09.954Z,20.77
2019-02-08T01:20:10.195Z,20.83
2019-02-08T01:21:09.967Z,20.77
2019-02-08T01:22:10.001Z,20.80
2019-02-08T01:23:10.140Z,20.77
2019-02-08T01:24:10.014Z,20.83
2019-02-08T01:25:10.214Z,20.82
2019-02-08T01:26:10.227Z,20.86
2019-02-08T01:27:10.204Z,20.89
2019-02-08T01:28:10.092Z,20.89
2019-02-08T01:29:10.119Z,20.86
2019-02-08T01:30:10.118Z,20.86
2019-02-08T01:31:10.357Z,20.70
2019-02-08T01:32:10.177Z,20.80
2019-02-08T01:33:10.153Z,20.78
2019-02-08T01:34:10.230Z,20.73
2019-02-08T01:35:10.201Z,20.80
2019-02-08T01:36:10.431Z,20.73
2019-02-08T01:37:10.230Z,20.71
2019-02-08T01:38:10.226Z,20.71
2019-02-08T01:39:10.259Z,20.58
2019-02-08T01:40:10.286Z,20.63
2019-02-08T01:41:10.409Z,20.55
2019-02-08T01:42:10.466Z,20.48
2019-02-08T01:43:10.435Z,20.34
2019-02-08T01:44:10.341Z,20.39
2019-02-08T01:45:10.348Z,20.39
2019-02-08T01:46:10.411Z,20.34
2019-02-08T01:47:10.434Z,20.29
2019-02-08T01:48:10.408Z,20.27
2019-02-08T01:49:10.438Z,20.24
2019-02-08T01:50:10.437Z,20.30
2019-02-08T01:51:10.440Z,20.18
2019-02-08T01:52:10.614Z,20.24
2019-02-08T01:53:10.587Z,20.15
2019-02-08T01:54:10.489Z,20.15
2019-02-08T01:55:10.497Z,20.17
2019-02-08T01:56:10.532Z,20.12
2019-02-08T01:57:10.850Z,20.15
2019-02-08T01:58:10.661Z,20.14
2019-02-08T01:59:10.576Z,20.07
2019-02-08T02:00:10.638Z,20.11
2019-02-08T02:01:10.593Z,20.02
2019-02-08T02:02:10.772Z,20.10
2019-02-08T02:03:10.622Z,20.08
2019-02-08T02:04:10.752Z,20.10
2019-02-08T02:05:10.763Z,20.00
2019-02-08T02:06:10.679Z,20.04
2019-02-08T02:07:10.774Z,20.00
2019-02-08T02:08:10.703Z,19.93
2019-02-08T02:09:10.711Z,19.99
2019-02-08T02:10:10.846Z,20.00
2019-02-08T02:11:10.766Z,19.90
2019-02-08T02:12:11.084Z,19.84
2019-02-08T02:13:10.780Z,19.81
2019-02-08T02:14:10.830Z,19.79
2019-02-08T02:15:10.913Z,19.77
2019-02-08T02:16:10.818Z,19.63
2019-02-08T02:17:10.910Z,19.71
2019-02-08T02:18:10.961Z,19.64
2019-02-08T02:19:10.856Z,19.64
2019-02-08T02:20:10.883Z,19.71
2019-02-08T02:21:11.001Z,19.66
2019-02-08T02:22:11.060Z,19.56
2019-02-08T02:23:10.943Z,19.62
2019-02-08T02:24:11.049Z,19.60
2019-02-08T02:25:10.965Z,19.56
2019-02-08T02:26:11.078Z,19.56
2019-02-08T02:27:11.034Z,19.62
2019-02-08T02:28:10.977Z,19.52
2019-02-08T02:29:11.118Z,19.53
2019-02-08T02:30:11.014Z,19.53
2019-02-08T02:31:11.045Z,19.48
2019-02-08T02:32:11.148Z,19.48
2019-02-08T02:33:11.063Z,19.39
2019-02-08T02:34:11.201Z,19.52
2019-02-08T02:35:11.097Z,19.39
2019-02-08T02:36:11.104Z,19.37
2019-02-08T02:37:11.290Z,19.45
2019-02-08T02:38:11.253Z,19.39
2019-02-08T02:39:11.165Z,19.45
2019-02-08T02:40:11.272Z,19.34
2019-02-08T02:41:11.217Z,19.45
2019-02-08T02:42:11.197Z,19.44
2019-02-08T02:43:11.230Z,19.49
2019-02-08T02:44:11.223Z,19.48
2019-02-08T02:45:11.339Z,19.52
2019-02-08T02:46:11.248Z,19.60
2019-02-08T02:47:11.283Z,19.53
2019-02-08T02:48:11.281Z,19.62
2019-02-08T02:49:11.413Z,19.60
2019-02-08T02:50:11.584Z,19.62
2019-02-08T02:51:11.448Z,19.63
2019-02-08T02:52:11.467Z,19.59
2019-02-08T02:53:11.473Z,19.67
2019-02-08T02:54:11.377Z,19.67
2019-02-08T02:55:11.550Z,19.70
2019-02-08T02:56:11.405Z,19.78
2019-02-08T02:57:11.469Z,19.75
2019-02-08T02:58:11.442Z,19.75
2019-02-08T02:59:11.434Z,19.79
2019-02-08T03:00:11.789Z,19.82
2019-02-08T03:01:11.596Z,19.94
2019-02-08T03:02:11.499Z,19.94
2019-02-08T03:03:11.500Z,20.00
2019-02-08T03:04:11.532Z,20.02
2019-02-08T03:05:11.680Z,20.08
2019-02-08T03:06:11.659Z,20.14
2019-02-08T03:07:11.566Z,20.19
2019-02-08T03:08:11.576Z,20.08
2019-02-08T03:09:11.706Z,20.14
2019-02-08T03:10:11.817Z,19.99
2019-02-08T03:11:11.633Z,20.03
2019-02-08T03:12:11.645Z,19.90
2019-02-08T03:13:11.769Z,19.99
2019-02-08T03:14:11.786Z,19.84
2019-02-08T03:15:11.892Z,19.77
2019-02-08T03:16:11.686Z,19.85
2019-02-08T03:17:11.831Z,19.71
2019-02-08T03:18:11.720Z,19.63
2019-02-08T03:19:11.752Z,19.62
2019-02-08T03:20:12.015Z,19.63
2019-02-08T03:21:11.758Z,19.64
2019-02-08T03:22:11.763Z,19.57
2019-02-08T03:23:11.847Z,19.49
2019-02-08T03:24:12.988Z,19.48
2019-02-08T03:25:11.937Z,19.47
2019-02-08T03:26:11.837Z,19.39
2019-02-08T03:27:11.969Z,19.34
2019-02-08T03:28:11.869Z,19.23
2019-02-08T03:29:11.996Z,19.26
2019-02-08T03:30:12.163Z,19.32
2019-02-08T03:31:11.922Z,19.29
2019-02-08T03:32:11.922Z,19.20
2019-02-08T03:33:12.060Z,19.08
2019-02-08T03:34:12.072Z,19.09
2019-02-08T03:35:12.194Z,19.26
2019-02-08T03:36:12.004Z,19.16
2019-02-08T03:37:12.031Z,19.20
2019-02-08T03:38:12.019Z,19.24
2019-02-08T03:39:12.045Z,19.19
2019-02-08T03:40:12.257Z,19.19
2019-02-08T03:41:12.170Z,19.12
2019-02-08T03:42:12.071Z,19.15
2019-02-08T03:43:12.093Z,19.12
2019-02-08T03:44:12.105Z,19.09
2019-02-08T03:45:12.340Z,19.05
2019-02-08T03:46:12.243Z,19.08
2019-02-08T03:47:12.142Z,19.00
2019-02-08T03:48:12.165Z,19.01
2019-02-08T03:49:12.173Z,19.00
2019-02-08T03:50:12.245Z,18.94
2019-02-08T03:51:12.225Z,18.98
2019-02-08T03:52:12.221Z,18.86
2019-02-08T03:53:12.220Z,18.92
2019-02-08T03:54:12.455Z,19.00
2019-02-08T03:55:12.255Z,18.94
2019-02-08T03:56:12.389Z,18.94
2019-02-08T03:57:12.277Z,18.97
2019-02-08T03:58:12.312Z,18.92
2019-02-08T03:59:12.430Z,18.82
2019-02-08T04:00:12.342Z,18.96
2019-02-08T04:01:12.459Z,18.91
2019-02-08T04:02:12.488Z,18.85
2019-02-08T04:03:12.373Z,18.83
2019-02-08T04:04:12.609Z,18.83
2019-02-08T04:05:12.415Z,18.74
2019-02-08T04:06:12.422Z,18.81
2019-02-08T04:07:12.423Z,18.79
2019-02-08T04:08:12.566Z,18.76
2019-02-08T04:09:12.575Z,18.71
2019-02-08T04:10:12.463Z,18.78
2019-02-08T04:11:12.602Z,18.79
2019-02-08T04:12:12.504Z,18.81
2019-02-08T04:13:12.628Z,18.79
2019-02-08T04:14:12.752Z,18.78
2019-02-08T04:15:12.524Z,18.79
2019-02-08T04:16:12.566Z,18.78
2019-02-08T04:17:12.688Z,18.76
2019-02-08T04:18:12.591Z,18.81
2019-02-08T04:19:12.644Z,18.82
2019-02-08T04:20:12.709Z,18.88
2019-02-08T04:21:12.754Z,18.74
2019-02-08T04:22:12.651Z,18.76
2019-02-08T04:23:12.771Z,18.66
2019-02-08T04:24:12.787Z,18.61
2019-02-08T04:25:12.848Z,18.64
2019-02-08T04:26:12.681Z,18.55
2019-02-08T04:27:12.712Z,18.58
2019-02-08T04:28:12.742Z,18.60
2019-02-08T04:29:12.856Z,18.60
2019-02-08T04:30:12.916Z,18.60
2019-02-08T04:31:12.893Z,18.61
2019-02-08T04:32:12.900Z,18.58
2019-02-08T04:33:12.799Z,18.64
2019-02-08T04:34:12.828Z,18.55
2019-02-08T04:35:12.992Z,18.61
2019-02-08T04:36:12.833Z,18.51
2019-02-08T04:37:12.968Z,18.46
2019-02-08T04:38:12.872Z,18.52
2019-02-08T04:39:12.892Z,18.55
2019-02-08T04:40:12.960Z,18.55
2019-02-08T04:41:13.037Z,18.49
2019-02-08T04:42:12.924Z,18.48
2019-02-08T04:43:13.053Z,18.39
2019-02-08T04:44:13.069Z,18.37
2019-02-08T04:45:13.181Z,18.39
2019-02-08T04:46:13.094Z,18.37
2019-02-08T04:47:13.001Z,18.36
2019-02-08T04:48:13.013Z,18.42
2019-02-08T04:49:13.017Z,18.37
2019-02-08T04:50:13.164Z,18.33
2019-02-08T04:51:13.061Z,18.33
2019-02-08T04:52:13.065Z,18.30
2019-02-08T04:53:13.195Z,18.34
2019-02-08T04:54:13.208Z,18.27
2019-02-08T04:55:13.281Z,18.23
2019-02-08T04:56:13.140Z,18.23
2019-02-08T04:57:13.136Z,18.08
2019-02-08T04:58:13.193Z,18.08
2019-02-08T04:59:13.180Z,18.11
2019-02-08T05:00:13.261Z,18.02
2019-02-08T05:01:13.307Z,18.08
2019-02-08T05:02:13.223Z,18.03
2019-02-08T05:03:13.232Z,18.15
2019-02-08T05:04:13.239Z,18.11
2019-02-08T05:05:13.276Z,18.06
2019-02-08T05:06:13.425Z,18.09
2019-02-08T05:07:13.282Z,18.05
2019-02-08T05:08:13.315Z,18.03
2019-02-08T05:09:13.417Z,18.06
2019-02-08T05:10:13.327Z,17.98
2019-02-08T05:11:13.545Z,17.98
2019-02-08T05:12:13.336Z,17.98
2019-02-08T05:13:13.418Z,17.91
2019-02-08T05:14:13.378Z,17.91
2019-02-08T05:15:13.384Z,17.84
2019-02-08T05:16:13.460Z,17.79
2019-02-08T05:17:13.416Z,17.88
2019-02-08T05:18:13.443Z,17.87
2019-02-08T05:19:13.440Z,17.78
2019-02-08T05:20:13.465Z,17.78
2019-02-08T05:21:13.737Z,17.78
2019-02-08T05:22:13.487Z,17.72
2019-02-08T05:23:13.532Z,17.73
2019-02-08T05:24:13.623Z,17.75
2019-02-08T05:25:13.508Z,17.78
2019-02-08T05:26:13.763Z,17.75
2019-02-08T05:27:13.572Z,17.79
2019-02-08T05:28:13.691Z,17.75
2019-02-08T05:29:13.583Z,17.86
2019-02-08T05:30:13.711Z,17.90
2019-02-08T05:31:13.781Z,17.93
2019-02-08T05:32:13.625Z,17.73
2019-02-08T05:33:13.753Z,17.80
2019-02-08T05:34:13.761Z,17.73
2019-02-08T05:35:13.658Z,17.84
2019-02-08T05:36:13.792Z,17.76
2019-02-08T05:37:13.713Z,17.76
2019-02-08T05:38:13.735Z,17.65
2019-02-08T05:39:13.741Z,17.65
2019-02-08T05:40:13.743Z,17.66
2019-02-08T05:41:13.793Z,17.63
2019-02-08T05:42:13.768Z,17.65
2019-02-08T05:43:13.889Z,17.60
2019-02-08T05:44:13.792Z,17.59
2019-02-08T05:45:13.916Z,17.60
2019-02-08T05:46:14.030Z,17.49
2019-02-08T05:47:13.812Z,17.49
2019-02-08T05:48:13.852Z,17.52
2019-02-08T05:49:13.968Z,17.46
2019-02-08T05:50:13.998Z,17.49
2019-02-08T05:51:14.047Z,17.49
2019-02-08T05:52:14.018Z,17.44
2019-02-08T05:53:13.910Z,17.53
2019-02-08T05:54:14.036Z,17.56
2019-02-08T05:55:14.055Z,17.69
2019-02-08T05:56:14.229Z,17.54
2019-02-08T05:57:13.957Z,17.59
2019-02-08T05:58:13.982Z,17.59
2019-02-08T05:59:14.007Z,17.63
2019-02-08T06:00:14.016Z,17.56
2019-02-08T06:01:14.071Z,17.65
2019-02-08T06:02:14.047Z,17.52
2019-02-08T06:03:14.163Z,17.56
2019-02-08T06:04:14.226Z,17.52
2019-02-08T06:05:14.188Z,17.49
2019-02-08T06:06:14.215Z,17.42
2019-02-08T06:07:14.094Z,17.60
2019-02-08T06:08:14.122Z,17.68
2019-02-08T06:09:14.356Z,17.79
2019-02-08T06:10:14.163Z,17.88
2019-02-08T06:11:14.163Z,17.84
2019-02-08T06:12:14.307Z,17.88
2019-02-08T06:13:14.185Z,17.76
2019-02-08T06:14:14.356Z,17.80
2019-02-08T06:15:14.213Z,17.84
2019-02-08T06:16:14.236Z,17.76
2019-02-08T06:17:14.355Z,17.80
2019-02-08T06:18:14.369Z,17.73
2019-02-08T06:19:14.325Z,17.75
2019-02-08T06:20:14.400Z,17.69
2019-02-08T06:21:14.293Z,17.72
2019-02-08T06:22:14.324Z,17.76
2019-02-08T06:23:14.334Z,17.72
2019-02-08T06:24:14.503Z,17.78
2019-02-08T06:25:14.365Z,17.79
2019-02-08T06:26:14.479Z,17.76
2019-02-08T06:27:14.498Z,17.73
2019-02-08T06:28:14.504Z,17.86
2019-02-08T06:29:14.667Z,17.79
2019-02-08T06:30:14.533Z,17.73
2019-02-08T06:31:14.436Z,17.84
2019-02-08T06:32:14.446Z,17.86
2019-02-08T06:33:14.472Z,17.72
2019-02-08T06:34:14.538Z,17.78
2019-02-08T06:35:14.598Z,17.75
2019-02-08T06:36:14.515Z,17.76
2019-02-08T06:37:14.628Z,17.75
2019-02-08T06:38:14.536Z,17.73
2019-02-08T06:39:14.534Z,17.86
2019-02-08T06:40:14.608Z,17.79
2019-02-08T06:41:14.573Z,17.78
2019-02-08T06:42:14.571Z,17.76
2019-02-08T06:43:14.621Z,17.76
2019-02-08T06:44:14.640Z,17.79
2019-02-08T06:45:14.838Z,17.75
2019-02-08T06:46:14.762Z,17.71
2019-02-08T06:47:14.665Z,17.71
2019-02-08T06:48:14.662Z,17.65
2019-02-08T06:49:14.675Z,17.63
2019-02-08T06:50:14.742Z,17.65
2019-02-08T06:51:14.804Z,17.65
2019-02-08T06:52:14.727Z,17.60
2019-02-08T06:53:14.752Z,17.59
2019-02-08T06:54:14.742Z,17.65
2019-02-08T06:55:14.750Z,17.56
2019-02-08T06:56:14.988Z,17.65
2019-02-08T06:57:14.784Z,17.66
2019-02-08T06:58:14.919Z,17.56
2019-02-08T06:59:14.815Z,17.50
2019-02-08T07:00:14.840Z,17.56
2019-02-08T07:01:14.934Z,17.52
2019-02-08T07:02:14.872Z,17.39
2019-02-08T07:03:14.875Z,17.38
2019-02-08T07:04:14.884Z,17.42
2019-02-08T07:05:15.005Z,17.46
2019-02-08T07:06:15.125Z,17.39
2019-02-08T07:07:14.974Z,17.49
2019-02-08T07:08:14.930Z,17.41
2019-02-08T07:09:14.956Z,17.42
2019-02-08T07:10:15.076Z,17.44
2019-02-08T07:11:15.026Z,17.37
2019-02-08T07:12:15.106Z,17.39
2019-02-08T07:13:14.984Z,17.42
2019-02-08T07:14:15.058Z,17.44
2019-02-08T07:15:15.034Z,17.30
2019-02-08T07:16:15.028Z,17.31
2019-02-08T07:17:15.047Z,17.38
2019-02-08T07:18:15.182Z,17.44
2019-02-08T07:19:15.321Z,17.37
2019-02-08T07:20:15.222Z,17.42
2019-02-08T07:21:15.239Z,17.46
2019-02-08T07:22:15.147Z,17.47
2019-02-08T07:23:15.255Z,17.42
2019-02-08T07:24:15.294Z,17.41
2019-02-08T07:25:18.504Z,17.41
2019-02-08T07:26:15.290Z,17.42
2019-02-08T07:27:15.187Z,17.46
2019-02-08T07:28:15.331Z,17.41
2019-02-08T07:29:15.321Z,17.42
2019-02-08T07:30:15.356Z,17.46
2019-02-08T07:31:15.223Z,17.50
2019-02-08T07:32:15.262Z,17.53
2019-02-08T07:33:15.284Z,17.63
2019-02-08T07:34:15.338Z,17.79
2019-02-08T07:35:15.430Z,17.73
2019-02-08T07:36:15.302Z,17.80
2019-02-08T07:37:15.444Z,17.78
2019-02-08T07:38:15.350Z,17.82
2019-02-08T07:39:15.524Z,17.82
2019-02-08T07:40:15.381Z,17.76
2019-02-08T07:41:15.396Z,17.78
2019-02-08T07:42:15.399Z,17.66
2019-02-08T07:43:15.410Z,17.60
2019-02-08T07:44:15.476Z,17.68
2019-02-08T07:45:15.442Z,17.60
2019-02-08T07:46:15.573Z,17.60
2019-02-08T07:47:15.456Z,17.69
2019-02-08T07:48:15.488Z,17.63
2019-02-08T07:49:15.705Z,17.68
2019-02-08T07:50:15.518Z,17.69
2019-02-08T07:51:15.510Z,17.60
2019-02-08T07:52:15.656Z,17.69
2019-02-08T07:53:15.558Z,17.68
2019-02-08T07:54:15.627Z,17.73
2019-02-08T07:55:15.692Z,17.78
2019-02-08T07:56:15.586Z,17.78
2019-02-08T07:57:15.626Z,17.69
2019-02-08T07:58:15.735Z,17.68
2019-02-08T07:59:15.837Z,17.71
2019-02-08T08:00:15.652Z,17.63
2019-02-08T08:01:15.647Z,17.72
2019-02-08T08:02:15.788Z,17.66
2019-02-08T08:03:15.669Z,17.60
2019-02-08T08:04:15.795Z,17.66
2019-02-08T08:05:15.707Z,17.57
2019-02-08T08:06:15.729Z,17.71
2019-02-08T08:07:15.848Z,17.75
2019-02-08T08:08:15.748Z,17.79
2019-02-08T08:09:15.926Z,17.76
2019-02-08T08:10:15.793Z,17.86
2019-02-08T08:11:15.795Z,17.86
2019-02-08T08:12:15.814Z,17.88
2019-02-08T08:13:15.847Z,17.86
2019-02-08T08:14:15.939Z,17.76
2019-02-08T08:15:15.963Z,17.75
2019-02-08T08:16:15.971Z,17.76
2019-02-08T08:17:15.980Z,17.72
2019-02-08T08:18:15.995Z,17.71
2019-02-08T08:19:16.165Z,17.66
2019-02-08T08:20:16.021Z,17.46
2019-02-08T08:21:16.046Z,17.49
2019-02-08T08:22:15.917Z,17.46
2019-02-08T08:23:15.943Z,17.47
2019-02-08T08:24:16.059Z,17.38
2019-02-08T08:25:15.968Z,17.38
2019-02-08T08:26:16.002Z,17.39
2019-02-08T08:27:16.013Z,17.35
2019-02-08T08:28:16.135Z,17.32
2019-02-08T08:29:16.130Z,17.35
2019-02-08T08:30:16.039Z,17.37
2019-02-08T08:31:16.061Z,17.35
2019-02-08T08:32:16.195Z,17.42
2019-02-08T08:33:16.202Z,17.37
2019-02-08T08:34:16.185Z,17.42
2019-02-08T08:35:16.139Z,17.23
2019-02-08T08:36:16.150Z,17.31
2019-02-08T08:37:16.178Z,17.34
2019-02-08T08:38:16.162Z,17.37
2019-02-08T08:39:16.193Z,17.31
2019-02-08T08:40:16.294Z,17.30
2019-02-08T08:41:16.309Z,17.34
2019-02-08T08:42:16.188Z,17.34
2019-02-08T08:43:16.227Z,17.32
2019-02-08T08:44:16.381Z,17.35
2019-02-08T08:45:16.247Z,17.30
2019-02-08T08:46:16.265Z,17.28
2019-02-08T08:47:16.386Z,17.28
2019-02-08T08:48:16.280Z,17.39
2019-02-08T08:49:16.512Z,17.44
2019-02-08T08:50:16.307Z,17.46
2019-02-08T08:51:16.371Z,17.52
2019-02-08T08:52:16.342Z,17.52
2019-02-08T08:53:16.356Z,17.69
2019-02-08T08:54:16.534Z,17.66
2019-02-08T08:55:16.506Z,17.69
2019-02-08T08:56:16.384Z,17.69
2019-02-08T08:57:16.582Z,17.72
2019-02-08T08:58:16.449Z,17.76
2019-02-08T08:59:16.440Z,17.73
2019-02-08T09:00:16.449Z,17.75
2019-02-08T09:01:16.574Z,17.80
2019-02-08T09:02:16.642Z,17.72
2019-02-08T09:03:16.482Z,17.69
2019-02-08T09:04:16.490Z,17.79
2019-02-08T09:05:16.525Z,17.73
2019-02-08T09:06:16.546Z,17.73
2019-02-08T09:07:16.696Z,17.72
2019-02-08T09:08:16.553Z,17.86
2019-02-08T09:09:16.684Z,17.86
2019-02-08T09:10:16.699Z,17.98
2019-02-08T09:11:16.605Z,18.02
2019-02-08T09:12:16.654Z,18.02
2019-02-08T09:13:16.627Z,18.11
2019-02-08T09:14:16.730Z,18.16
2019-02-08T09:15:16.656Z,18.33
2019-02-08T09:16:16.827Z,18.48
2019-02-08T09:17:16.684Z,18.55
2019-02-08T09:18:16.809Z,18.66
2019-02-08T09:19:16.927Z,18.76
2019-02-08T09:20:16.731Z,18.82
2019-02-08T09:21:16.847Z,18.97
2019-02-08T09:22:16.772Z,19.15
2019-02-08T09:23:16.890Z,19.20
2019-02-08T09:24:16.887Z,19.32
2019-02-08T09:25:16.791Z,19.48
2019-02-08T09:26:16.805Z,19.67
2019-02-08T09:27:16.947Z,19.78
2019-02-08T09:28:16.829Z,19.93
2019-02-08T09:29:17.120Z,20.15
2019-02-08T09:30:16.863Z,20.27
2019-02-08T09:31:17.011Z,20.39
2019-02-08T09:32:17.025Z,20.66
2019-02-08T09:33:16.916Z,20.64
2019-02-08T09:34:17.024Z,20.82
2019-02-08T09:35:16.995Z,21.05
2019-02-08T09:36:16.957Z,21.15
2019-02-08T09:37:16.967Z,21.32
2019-02-08T09:38:17.117Z,21.54
2019-02-08T09:39:17.227Z,21.69
2019-02-08T09:40:17.024Z,21.88
2019-02-08T09:41:17.054Z,21.96
2019-02-08T09:42:17.065Z,22.21
2019-02-08T09:43:17.105Z,22.46
2019-02-08T09:44:17.196Z,22.68
2019-02-08T09:45:17.227Z,22.86
2019-02-08T09:46:17.140Z,23.02
2019-02-08T09:47:17.168Z,23.21
2019-02-08T09:48:17.176Z,23.51
2019-02-08T09:49:17.446Z,23.66
2019-02-08T09:50:17.223Z,23.82
2019-02-08T09:51:17.345Z,24.09
2019-02-08T09:52:17.259Z,24.28
2019-02-08T09:53:17.261Z,24.40
2019-02-08T09:54:17.314Z,24.69
2019-02-08T09:55:17.289Z,24.86
2019-02-08T09:56:17.306Z,25.00
2019-02-08T09:57:17.322Z,25.12
2019-02-08T09:58:17.454Z,25.14
2019-02-08T09:59:17.373Z,25.26
2019-02-08T10:00:17.401Z,25.40
2019-02-08T10:01:17.521Z,25.58
2019-02-08T10:02:17.541Z,25.76
2019-02-08T10:03:17.603Z,25.83
2019-02-08T10:04:17.473Z,25.93
2019-02-08T10:05:17.476Z,26.19
2019-02-08T10:06:17.616Z,26.41
2019-02-08T10:07:17.531Z,26.61
2019-02-08T10:08:17.756Z,26.81
2019-02-08T10:09:17.672Z,27.01
2019-02-08T10:10:17.568Z,27.19
2019-02-08T10:11:17.610Z,27.35
2019-02-08T10:12:17.735Z,27.68
2019-02-08T10:13:17.792Z,27.76
2019-02-08T10:14:17.656Z,27.91
2019-02-08T10:15:17.729Z,28.03
2019-02-08T10:16:17.719Z,28.12
2019-02-08T10:17:17.833Z,28.27
2019-02-08T10:18:17.779Z,28.38
2019-02-08T10:19:17.751Z,28.60
2019-02-08T10:20:17.776Z,28.92
2019-02-08T10:21:17.795Z,29.00
2019-02-08T10:22:17.944Z,29.21
2019-02-08T10:23:17.907Z,29.50
2019-02-08T10:24:18.087Z,29.61
2019-02-08T10:25:17.893Z,29.79
2019-02-08T10:26:17.915Z,29.90
2019-02-08T10:27:17.939Z,30.02
2019-02-08T10:28:17.951Z,30.23
2019-02-08T10:29:18.028Z,30.26
2019-02-08T10:30:18.025Z,30.46
2019-02-08T10:31:18.004Z,30.48
2019-02-08T10:32:18.151Z,30.65
2019-02-08T10:33:18.090Z,30.88
2019-02-08T10:34:18.189Z,31.11
2019-02-08T10:35:18.108Z,31.39
2019-02-08T10:36:18.246Z,31.85
2019-02-08T10:37:18.159Z,32.16
2019-02-08T10:38:18.261Z,32.30
2019-02-08T10:39:18.304Z,32.41
2019-02-08T10:40:18.232Z,32.60
2019-02-08T10:41:18.212Z,32.79
2019-02-08T10:42:18.313Z,32.91
2019-02-08T10:43:18.382Z,33.28
2019-02-08T10:44:18.307Z,33.23
2019-02-08T10:45:18.441Z,33.23
2019-02-08T10:46:18.466Z,33.39
2019-02-08T10:47:18.393Z,33.57
2019-02-08T10:48:18.560Z,33.60
2019-02-08T10:49:18.474Z,33.84
2019-02-08T10:50:18.470Z,33.87
2019-02-08T10:51:18.490Z,33.81
2019-02-08T10:52:18.507Z,33.75
2019-02-08T10:53:18.697Z,33.82
2019-02-08T10:54:18.547Z,33.98
2019-02-08T10:55:18.606Z,34.11
2019-02-08T10:56:18.585Z,34.47
2019-02-08T10:57:18.641Z,34.81
2019-02-08T10:58:18.772Z,35.16
2019-02-08T10:59:18.679Z,35.16
2019-02-08T11:00:18.682Z,35.25
2019-02-08T11:01:18.691Z,35.45
2019-02-08T11:02:18.719Z,35.76
2019-02-08T11:03:18.957Z,36.11
2019-02-08T11:04:18.767Z,36.22
2019-02-08T11:05:18.907Z,36.22
2019-02-08T11:06:18.823Z,36.25
2019-02-08T11:07:18.855Z,36.44
2019-02-08T11:08:18.991Z,36.60
2019-02-08T11:09:18.901Z,36.55
2019-02-08T11:10:18.922Z,36.60
2019-02-08T11:11:19.049Z,36.94
2019-02-08T11:12:19.073Z,37.18
2019-02-08T11:13:19.153Z,37.26
2019-02-08T11:14:19.002Z,37.48
2019-02-08T11:15:19.150Z,37.58
2019-02-08T11:16:19.145Z,37.88
2019-02-08T11:17:19.076Z,38.09
2019-02-08T11:18:19.220Z,38.46
2019-02-08T11:19:19.142Z,38.81
2019-02-08T11:20:19.145Z,39.08
2019-02-08T11:21:19.281Z,39.26
2019-02-08T11:22:19.195Z,39.54
2019-02-08T11:23:19.243Z,39.70
2019-02-08T11:24:19.370Z,39.95
2019-02-08T11:25:19.282Z,40.19
2019-02-08T11:26:23.205Z,40.36
2019-02-08T11:27:19.333Z,40.46
2019-02-08T11:28:19.360Z,40.57
2019-02-08T11:29:19.496Z,40.64
2019-02-08T11:30:19.409Z,40.67
2019-02-08T11:31:19.576Z,40.59
2019-02-08T11:32:19.462Z,40.74
2019-02-08T11:33:19.492Z,40.70
2019-02-08T11:34:19.510Z,40.57
2019-02-08T11:35:19.656Z,40.10
2019-02-08T11:36:19.710Z,39.97
2019-02-08T11:37:19.705Z,39.93
2019-02-08T11:38:19.751Z,40.01
2019-02-08T11:39:19.647Z,39.97
2019-02-08T11:40:19.684Z,40.16
2019-02-08T11:41:19.747Z,40.28
2019-02-08T11:42:19.809Z,40.36
2019-02-08T11:43:19.746Z,40.31
2019-02-08T11:44:19.887Z,40.01
2019-02-08T11:45:19.916Z,39.70
2019-02-08T11:46:20.042Z,39.44
2019-02-08T11:47:19.927Z,39.42
2019-02-08T11:48:19.893Z,39.27
2019-02-08T11:49:19.929Z,38.96
2019-02-08T11:50:20.052Z,38.72
2019-02-08T11:51:20.014Z,39.00
2019-02-08T11:52:19.970Z,39.11
2019-02-08T11:53:20.006Z,39.41
2019-02-08T11:54:20.170Z,39.57
2019-02-08T11:55:20.081Z,39.57
2019-02-08T11:56:20.349Z,39.61
2019-02-08T11:57:20.230Z,39.79
2019-02-08T11:58:20.127Z,40.08
2019-02-08T11:59:20.229Z,40.14
2019-02-08T12:00:20.306Z,40.35
2019-02-08T12:01:20.319Z,40.69
2019-02-08T12:02:20.266Z,40.89
2019-02-08T12:03:20.282Z,41.18
2019-02-08T12:04:20.312Z,41.30
2019-02-08T12:05:20.347Z,41.11
2019-02-08T12:06:20.413Z,41.08
2019-02-08T12:07:20.364Z,41.04
2019-02-08T12:08:20.391Z,40.88
2019-02-08T12:09:20.423Z,40.66
2019-02-08T12:10:20.571Z,40.78
2019-02-08T12:11:20.659Z,40.80
2019-02-08T12:12:20.499Z,40.81
2019-02-08T12:13:20.549Z,40.86
2019-02-08T12:14:20.692Z,40.86
2019-02-08T12:15:20.713Z,40.88
2019-02-08T12:16:20.736Z,40.99
2019-02-08T12:17:20.758Z,41.29
2019-02-08T12:18:20.722Z,41.51
2019-02-08T12:19:20.698Z,41.53
2019-02-08T12:20:20.711Z,41.45
2019-02-08T12:21:20.847Z,41.53
2019-02-08T12:22:20.766Z,41.67
2019-02-08T12:23:20.919Z,41.98
2019-02-08T12:24:20.854Z,42.27
2019-02-08T12:25:20.841Z,42.46
2019-02-08T12:26:21.007Z,42.70
2019-02-08T12:27:20.929Z,42.71
2019-02-08T12:28:20.966Z,42.61
2019-02-08T12:29:21.090Z,42.53
2019-02-08T12:30:20.996Z,42.61
2019-02-08T12:31:21.244Z,42.80
2019-02-08T12:32:21.053Z,43.03
2019-02-08T12:33:21.110Z,43.12
2019-02-08T12:34:21.130Z,42.96
2019-02-08T12:35:21.269Z,42.92
2019-02-08T12:36:21.272Z,42.73
2019-02-08T12:38:21.343Z,42.99
2019-02-08T12:39:21.377Z,43.09
2019-02-08T12:40:21.278Z,43.19
2019-02-08T12:41:21.401Z,43.34
2019-02-08T12:42:21.337Z,43.57
2019-02-08T12:43:21.358Z,43.66
2019-02-08T12:44:21.514Z,43.65
2019-02-08T12:45:21.540Z,43.19
2019-02-08T12:46:21.663Z,42.56
2019-02-08T12:47:21.595Z,42.47
2019-02-08T12:48:21.632Z,42.92
2019-02-08T12:49:21.652Z,42.89
2019-02-08T12:50:21.553Z,42.93
2019-02-08T12:51:21.750Z,43.34
2019-02-08T12:52:21.609Z,43.75
2019-02-08T12:53:21.759Z,43.85
2019-02-08T12:54:21.684Z,43.51